< < Back
Terminal Aerodrome Forecast


Current Version              Previous Versions:   1  2  3  4  5  6  7  8  9  

Terminal Aerodrome Forecast

884
FTUS44 KBMX 020900 AAB
TAFMGM
TAF AMD
KMGM 020936Z 0210/0306 00000KT P6SM SKC
     FM021400 17006KT P6SM SCT040 BKN250=

Latest METAR

641
SAUS80 KWBC 021600 RRB
MTRMGM
METAR KMGM 021553Z VRB05KT 10SM CLR 28/21 A3007 RMK AO2 SLP180
T02830206


USA.gov is the U.S. government's official web portal to all federal, state and local government web resources and services.